TAF and METAR

METAR for Inca Manco Capac Airport

SPJL 250000Z 22003KT CAVOK 08/M10 Q1035 RMK PP000
Report created 25. jun 02:00
wind 3 knots from SW (220°) Clear sky Temperature 8° with dewpoint at -10° (Humidity 26.69%) Pressure 1035 hPa

TAF for Inca Manco Capac Airport

TAF SPJL 242300Z 2500/2524 VRB02KT CAVOK TX16/2518Z TNM06/2510Z
Report created 25. jun 01:00

between 25. jun 02:00 - 25. jun 02:00

wind 2 knots from various directions Clear sky Max temperature 16° expected today at around 20 o'clock Min temperature -06° expected today at around 12 o'clock